Gaylord, MI

7:50 PM EDT on September 01, 2014 (GMT -0400)
Harbor Springs | Change Station
CLOSE
Current Station
Airport
Location: Harbor Springs,
Elevation: 686 ft
Nearby Weather Stations

Elev 686 ft 45.43 °N, 84.91 °W | Updated 16 minutes ago

Overcast
Overcast
70 °F
Feels Like 70 °F
N
10
Wind Variable Wind from SW

Today
High -- | Low -- °F
--% Chance of Precip.
Yesterday
High -- | Low -- °F
Precip. -- in
7:00 AM 8:15 PM
Waxing Crescent, 45% visible
Pressure 29.67 in
Visibility 10.0 miles
Clouds Scattered Clouds 2600 ft
Scattered Clouds 3700 ft
Overcast 7000 ft
Dew Point 64 °F
Humidity 82%
Rainfall 0.00 in
Snow Depth Not available.
UV 0 out of 12
Pollen 7.10 out of 12
Ozone Good
PM2.5 Good
Flu Activity Not available.
METAR KMGN 012334Z AUTO 23009KT 10SM SCT026 SCT037 OVC070 21/17 A2967 RMK AO2 T02100178

More Conditions Fewer Conditions

Pressure 29.67 in
Visibility 10.0 miles
Clouds Scattered Clouds 2600 ft
Scattered Clouds 3700 ft
Overcast 7000 ft
Dew Point 64 °F
Humidity 82%
Rainfall 0.00 in
Snow Depth Not available.
UV 0 out of 12
Pollen 7.10 out of 12
Ozone Good
PM2.5 Good
Flu Activity Not available.
METAR KMGN 012334Z AUTO 23009KT 10SM SCT026 SCT037 OVC070 21/17 A2967 RMK AO2 T02100178

More Conditions Fewer Conditions

Nowcast | as of 7:00 PM EDT on September 1, 2014

At 8 PM...rain showers likely and chance of thunderstorms. Temperature 67. Southwest winds 13 mph. At 10 PM...rain showers likely and chance of thunderstorms. Temperature 64. West winds 10 mph. At 12 am...mostly cloudy. Temperature 62. West winds 8 mph. At 2 am...mostly cloudy. Temperature 60. West winds 7 mph.

×

10-Day Weather Forecast

Almanac

Astronomy

Sep. 01, 2014 Rise Set
Actual Time 7:00 AM EDT 8:15 PM EDT
Civil Twilight 6:30 AM EDT 8:46 PM EDT
Nautical Twilight 5:53 AM EDT 9:22 PM EDT
Astronomical Twilight 5:15 AM EDT 10:00 PM EDT
Moon 2:03 PM EDT 11:58 PM EDT
Length of Visible Light 14h 15m
Length of Day
13h 15m
Tomorrow will be 3m 2s shorter.
Waxing Crescent, 45% of the Moon is Illuminated
Today
Waxing Crescent
Sep 2
First Quarter
Sep 8
Full
Sep 15
Last Quarter
Sep 24
New

Today's Extremes

State Highs State Lows

Community

WunderPhotos

Upload Photos

1,749,440 photos uploaded!

Nearby

Air Quality

  Air Quality AQ Index Pollutant
Yesterday Good
OZONE
Yesterday Good
PM2.5
Current Good
OZONE
Current Good
PM2.5
Monday Good
OZONE
Monday Good
PM2.5
Tuesday Good
OZONE
Tuesday Good
PM2.5

Snow Depth

Station Depth Elevation
No new snow has been reported.

Earthquake Activity

City Distance Mag. Time & Date
No recent earthquake activity has been reported nearby.
Minimum magnitude displayed is 2.5.

Coastal Water Temperatures

Place Temperature
Mackinaw City, MI 62.1 °F
Port Inland, MI 66.0 °F

Nearby Weather Stations